sensor_id;sensor_type;location;lat;lon;timestamp;P1;durP1;ratioP1;P2;durP2;ratioP2
16512;SDS011;8369;48.030;11.598;2022-12-07T00:01:20;11.50;;;7.80;;
16512;SDS011;8369;48.030;11.598;2022-12-07T00:03:51;12.20;;;7.40;;
16512;SDS011;8369;48.030;11.598;2022-12-07T00:06:19;12.50;;;8.00;;
16512;SDS011;8369;48.030;11.598;2022-12-07T00:08:46;12.57;;;7.17;;
16512;SDS011;8369;48.030;11.598;2022-12-07T00:11:16;12.03;;;7.63;;
16512;SDS011;8369;48.030;11.598;2022-12-07T00:13:44;12.07;;;7.83;;
16512;SDS011;8369;48.030;11.598;2022-12-07T00:16:14;14.17;;;7.67;;
16512;SDS011;8369;48.030;11.598;2022-12-07T00:18:43;13.37;;;8.03;;
16512;SDS011;8369;48.030;11.598;2022-12-07T00:21:14;12.77;;;7.70;;
16512;SDS011;8369;48.030;11.598;2022-12-07T00:23:43;12.20;;;7.70;;
16512;SDS011;8369;48.030;11.598;2022-12-07T00:26:11;12.03;;;7.40;;
16512;SDS011;8369;48.030;11.598;2022-12-07T00:28:46;11.77;;;7.60;;
16512;SDS011;8369;48.030;11.598;2022-12-07T00:31:13;11.33;;;7.90;;
16512;SDS011;8369;48.030;11.598;2022-12-07T00:33:40;10.77;;;7.00;;
16512;SDS011;8369;48.030;11.598;2022-12-07T00:36:08;11.63;;;7.80;;
16512;SDS011;8369;48.030;11.598;2022-12-07T00:38:37;13.33;;;8.10;;
16512;SDS011;8369;48.030;11.598;2022-12-07T00:41:09;13.80;;;7.27;;
16512;SDS011;8369;48.030;11.598;2022-12-07T00:43:41;12.37;;;7.40;;
16512;SDS011;8369;48.030;11.598;2022-12-07T00:46:08;11.10;;;6.90;;
16512;SDS011;8369;48.030;11.598;2022-12-07T00:48:34;10.73;;;6.90;;
16512;SDS011;8369;48.030;11.598;2022-12-07T00:51:00;11.43;;;7.47;;
16512;SDS011;8369;48.030;11.598;2022-12-07T00:53:27;11.43;;;7.97;;
16512;SDS011;8369;48.030;11.598;2022-12-07T00:55:53;12.97;;;7.13;;
16512;SDS011;8369;48.030;11.598;2022-12-07T00:58:20;11.77;;;7.63;;
16512;SDS011;8369;48.030;11.598;2022-12-07T01:00:46;13.03;;;8.00;;
16512;SDS011;8369;48.030;11.598;2022-12-07T01:03:13;13.70;;;7.97;;
16512;SDS011;8369;48.030;11.598;2022-12-07T01:05:40;14.10;;;7.60;;
16512;SDS011;8369;48.030;11.598;2022-12-07T01:08:15;12.40;;;7.17;;
16512;SDS011;8369;48.030;11.598;2022-12-07T01:10:41;11.37;;;7.20;;
16512;SDS011;8369;48.030;11.598;2022-12-07T01:13:07;12.63;;;7.30;;
16512;SDS011;8369;48.030;11.598;2022-12-07T01:15:33;11.27;;;7.33;;
16512;SDS011;8369;48.030;11.598;2022-12-07T01:17:59;12.17;;;7.73;;
16512;SDS011;8369;48.030;11.598;2022-12-07T01:20:25;9.90;;;7.23;;
16512;SDS011;8369;48.030;11.598;2022-12-07T01:22:50;13.13;;;7.57;;
16512;SDS011;8369;48.030;11.598;2022-12-07T01:25:16;10.67;;;7.27;;
16512;SDS011;8369;48.030;11.598;2022-12-07T01:27:42;11.67;;;7.47;;
16512;SDS011;8369;48.030;11.598;2022-12-07T01:30:09;11.60;;;6.60;;
16512;SDS011;8369;48.030;11.598;2022-12-07T01:32:37;11.57;;;7.80;;
16512;SDS011;8369;48.030;11.598;2022-12-07T01:35:04;12.87;;;7.47;;
16512;SDS011;8369;48.030;11.598;2022-12-07T01:37:33;11.20;;;7.10;;
16512;SDS011;8369;48.030;11.598;2022-12-07T01:40:03;12.13;;;7.47;;
16512;SDS011;8369;48.030;11.598;2022-12-07T01:42:31;11.63;;;7.60;;
16512;SDS011;8369;48.030;11.598;2022-12-07T01:48:04;9.97;;;6.67;;
16512;SDS011;8369;48.030;11.598;2022-12-07T01:50:32;11.43;;;7.03;;
16512;SDS011;8369;48.030;11.598;2022-12-07T01:52:58;12.87;;;7.20;;
16512;SDS011;8369;48.030;11.598;2022-12-07T01:55:26;11.93;;;7.93;;
16512;SDS011;8369;48.030;11.598;2022-12-07T01:57:53;11.90;;;7.57;;
16512;SDS011;8369;48.030;11.598;2022-12-07T02:00:20;12.47;;;7.87;;
16512;SDS011;8369;48.030;11.598;2022-12-07T02:05:20;11.07;;;6.63;;
16512;SDS011;8369;48.030;11.598;2022-12-07T02:07:48;11.87;;;6.80;;
16512;SDS011;8369;48.030;11.598;2022-12-07T02:10:19;12.80;;;7.23;;
16512;SDS011;8369;48.030;11.598;2022-12-07T02:12:50;11.60;;;7.00;;
16512;SDS011;8369;48.030;11.598;2022-12-07T02:27:47;9.87;;;6.67;;
16512;SDS011;8369;48.030;11.598;2022-12-07T02:30:31;10.37;;;6.33;;
16512;SDS011;8369;48.030;11.598;2022-12-07T02:33:04;9.47;;;6.60;;
16512;SDS011;8369;48.030;11.598;2022-12-07T02:38:18;11.57;;;6.90;;
16512;SDS011;8369;48.030;11.598;2022-12-07T02:40:59;10.37;;;6.57;;
16512;SDS011;8369;48.030;11.598;2022-12-07T02:43:41;13.33;;;7.87;;
16512;SDS011;8369;48.030;11.598;2022-12-07T02:46:18;10.70;;;6.83;;
16512;SDS011;8369;48.030;11.598;2022-12-07T02:48:47;10.97;;;7.00;;
16512;SDS011;8369;48.030;11.598;2022-12-07T02:51:14;12.10;;;7.03;;
16512;SDS011;8369;48.030;11.598;2022-12-07T02:53:43;11.40;;;6.83;;
16512;SDS011;8369;48.030;11.598;2022-12-07T02:59:25;9.50;;;6.53;;
16512;SDS011;8369;48.030;11.598;2022-12-07T03:15:35;10.07;;;6.90;;
16512;SDS011;8369;48.030;11.598;2022-12-07T03:18:05;11.50;;;6.23;;
16512;SDS011;8369;48.030;11.598;2022-12-07T03:20:34;10.17;;;6.73;;
16512;SDS011;8369;48.030;11.598;2022-12-07T03:23:03;10.60;;;6.97;;
16512;SDS011;8369;48.030;11.598;2022-12-07T03:25:35;11.67;;;7.00;;
16512;SDS011;8369;48.030;11.598;2022-12-07T03:28:09;11.13;;;7.20;;
16512;SDS011;8369;48.030;11.598;2022-12-07T03:36:00;10.27;;;6.70;;
16512;SDS011;8369;48.030;11.598;2022-12-07T03:38:38;14.23;;;6.90;;
16512;SDS011;8369;48.030;11.598;2022-12-07T03:41:38;11.20;;;6.90;;
16512;SDS011;8369;48.030;11.598;2022-12-07T03:44:04;11.20;;;6.77;;
16512;SDS011;8369;48.030;11.598;2022-12-07T03:55:30;9.93;;;6.40;;
16512;SDS011;8369;48.030;11.598;2022-12-07T03:58:02;12.20;;;6.63;;
16512;SDS011;8369;48.030;11.598;2022-12-07T04:00:32;12.17;;;7.07;;
16512;SDS011;8369;48.030;11.598;2022-12-07T04:02:58;10.60;;;6.77;;
16512;SDS011;8369;48.030;11.598;2022-12-07T04:05:24;11.53;;;6.47;;
16512;SDS011;8369;48.030;11.598;2022-12-07T04:07:51;10.87;;;6.40;;
16512;SDS011;8369;48.030;11.598;2022-12-07T04:10:17;11.67;;;7.10;;
16512;SDS011;8369;48.030;11.598;2022-12-07T04:12:43;11.67;;;7.00;;
16512;SDS011;8369;48.030;11.598;2022-12-07T04:15:09;9.67;;;6.67;;
16512;SDS011;8369;48.030;11.598;2022-12-07T04:17:35;10.23;;;7.10;;
16512;SDS011;8369;48.030;11.598;2022-12-07T04:20:04;10.13;;;6.60;;
16512;SDS011;8369;48.030;11.598;2022-12-07T04:22:31;9.77;;;6.17;;
16512;SDS011;8369;48.030;11.598;2022-12-07T04:24:57;9.07;;;6.20;;
16512;SDS011;8369;48.030;11.598;2022-12-07T04:27:23;9.87;;;6.40;;
16512;SDS011;8369;48.030;11.598;2022-12-07T04:29:48;10.43;;;6.30;;
16512;SDS011;8369;48.030;11.598;2022-12-07T04:32:14;9.83;;;6.53;;
16512;SDS011;8369;48.030;11.598;2022-12-07T04:34:40;10.97;;;6.63;;
16512;SDS011;8369;48.030;11.598;2022-12-07T04:37:06;10.43;;;6.83;;
16512;SDS011;8369;48.030;11.598;2022-12-07T04:39:32;11.70;;;6.97;;
16512;SDS011;8369;48.030;11.598;2022-12-07T04:41:59;9.97;;;6.77;;
16512;SDS011;8369;48.030;11.598;2022-12-07T04:44:25;12.17;;;7.47;;
16512;SDS011;8369;48.030;11.598;2022-12-07T04:46:52;10.70;;;6.70;;
16512;SDS011;8369;48.030;11.598;2022-12-07T04:49:20;10.20;;;6.77;;
16512;SDS011;8369;48.030;11.598;2022-12-07T04:51:46;9.30;;;6.23;;
16512;SDS011;8369;48.030;11.598;2022-12-07T04:54:13;9.93;;;6.77;;
16512;SDS011;8369;48.030;11.598;2022-12-07T04:56:39;10.53;;;6.63;;
16512;SDS011;8369;48.030;11.598;2022-12-07T04:59:05;10.97;;;6.90;;
16512;SDS011;8369;48.030;11.598;2022-12-07T05:01:32;11.77;;;6.77;;
16512;SDS011;8369;48.030;11.598;2022-12-07T05:03:58;10.23;;;7.17;;
16512;SDS011;8369;48.030;11.598;2022-12-07T05:06:25;9.13;;;6.17;;
16512;SDS011;8369;48.030;11.598;2022-12-07T05:08:51;10.03;;;7.07;;
16512;SDS011;8369;48.030;11.598;2022-12-07T05:11:17;10.13;;;7.10;;
16512;SDS011;8369;48.030;11.598;2022-12-07T05:14:02;11.40;;;7.13;;
16512;SDS011;8369;48.030;11.598;2022-12-07T05:16:29;10.93;;;7.23;;
16512;SDS011;8369;48.030;11.598;2022-12-07T05:18:54;11.03;;;7.07;;
16512;SDS011;8369;48.030;11.598;2022-12-07T05:21:21;9.50;;;6.13;;
16512;SDS011;8369;48.030;11.598;2022-12-07T05:23:47;12.17;;;7.07;;
16512;SDS011;8369;48.030;11.598;2022-12-07T05:26:13;10.63;;;6.47;;
16512;SDS011;8369;48.030;11.598;2022-12-07T05:28:39;9.73;;;6.70;;
16512;SDS011;8369;48.030;11.598;2022-12-07T05:31:04;11.37;;;7.20;;
16512;SDS011;8369;48.030;11.598;2022-12-07T05:33:30;11.90;;;7.33;;
16512;SDS011;8369;48.030;11.598;2022-12-07T05:35:56;10.03;;;6.57;;
16512;SDS011;8369;48.030;11.598;2022-12-07T05:38:22;10.10;;;6.40;;
16512;SDS011;8369;48.030;11.598;2022-12-07T05:40:47;9.67;;;6.03;;
16512;SDS011;8369;48.030;11.598;2022-12-07T05:43:13;11.03;;;7.23;;
16512;SDS011;8369;48.030;11.598;2022-12-07T05:45:39;10.90;;;6.80;;
16512;SDS011;8369;48.030;11.598;2022-12-07T05:48:05;10.60;;;7.03;;
16512;SDS011;8369;48.030;11.598;2022-12-07T05:50:31;10.87;;;6.87;;
16512;SDS011;8369;48.030;11.598;2022-12-07T05:52:56;9.53;;;6.47;;
16512;SDS011;8369;48.030;11.598;2022-12-07T05:55:22;11.00;;;7.13;;
16512;SDS011;8369;48.030;11.598;2022-12-07T05:57:49;11.57;;;7.53;;
16512;SDS011;8369;48.030;11.598;2022-12-07T06:00:33;11.37;;;7.27;;
16512;SDS011;8369;48.030;11.598;2022-12-07T06:02:59;10.30;;;6.40;;
16512;SDS011;8369;48.030;11.598;2022-12-07T06:05:25;9.47;;;6.97;;
16512;SDS011;8369;48.030;11.598;2022-12-07T06:07:51;13.03;;;8.07;;
16512;SDS011;8369;48.030;11.598;2022-12-07T06:10:17;12.10;;;6.77;;
16512;SDS011;8369;48.030;11.598;2022-12-07T06:12:43;11.43;;;7.40;;
16512;SDS011;8369;48.030;11.598;2022-12-07T06:15:11;12.93;;;6.63;;
16512;SDS011;8369;48.030;11.598;2022-12-07T06:17:38;17.13;;;9.83;;
16512;SDS011;8369;48.030;11.598;2022-12-07T06:20:04;13.90;;;8.20;;
16512;SDS011;8369;48.030;11.598;2022-12-07T06:22:31;15.97;;;9.17;;
16512;SDS011;8369;48.030;11.598;2022-12-07T06:25:02;13.47;;;8.07;;
16512;SDS011;8369;48.030;11.598;2022-12-07T06:27:28;12.10;;;6.80;;
16512;SDS011;8369;48.030;11.598;2022-12-07T06:29:54;11.83;;;6.60;;
16512;SDS011;8369;48.030;11.598;2022-12-07T06:32:20;11.63;;;7.43;;
16512;SDS011;8369;48.030;11.598;2022-12-07T06:34:46;17.80;;;9.87;;
16512;SDS011;8369;48.030;11.598;2022-12-07T06:37:12;12.17;;;7.27;;
16512;SDS011;8369;48.030;11.598;2022-12-07T06:39:38;12.90;;;7.03;;
16512;SDS011;8369;48.030;11.598;2022-12-07T06:42:04;10.57;;;6.87;;
16512;SDS011;8369;48.030;11.598;2022-12-07T06:44:30;11.37;;;6.90;;
16512;SDS011;8369;48.030;11.598;2022-12-07T06:46:56;11.80;;;7.37;;
16512;SDS011;8369;48.030;11.598;2022-12-07T06:49:21;11.03;;;7.20;;
16512;SDS011;8369;48.030;11.598;2022-12-07T06:51:47;8.93;;;6.17;;
16512;SDS011;8369;48.030;11.598;2022-12-07T06:54:13;8.60;;;6.53;;
16512;SDS011;8369;48.030;11.598;2022-12-07T06:56:40;11.27;;;6.80;;
16512;SDS011;8369;48.030;11.598;2022-12-07T06:59:07;9.83;;;6.67;;
16512;SDS011;8369;48.030;11.598;2022-12-07T07:01:33;10.80;;;6.53;;
16512;SDS011;8369;48.030;11.598;2022-12-07T07:04:00;12.73;;;6.23;;
16512;SDS011;8369;48.030;11.598;2022-12-07T07:06:26;9.93;;;6.63;;
16512;SDS011;8369;48.030;11.598;2022-12-07T07:08:52;11.10;;;7.13;;
16512;SDS011;8369;48.030;11.598;2022-12-07T07:11:18;11.77;;;6.73;;
16512;SDS011;8369;48.030;11.598;2022-12-07T07:13:44;9.73;;;6.03;;
16512;SDS011;8369;48.030;11.598;2022-12-07T07:16:10;10.30;;;6.43;;
16512;SDS011;8369;48.030;11.598;2022-12-07T07:18:36;12.10;;;7.87;;
16512;SDS011;8369;48.030;11.598;2022-12-07T07:21:02;9.97;;;7.30;;
16512;SDS011;8369;48.030;11.598;2022-12-07T07:23:28;12.80;;;7.37;;
16512;SDS011;8369;48.030;11.598;2022-12-07T07:25:54;10.47;;;6.73;;
16512;SDS011;8369;48.030;11.598;2022-12-07T07:28:20;10.53;;;7.07;;
16512;SDS011;8369;48.030;11.598;2022-12-07T07:30:46;10.60;;;7.27;;
16512;SDS011;8369;48.030;11.598;2022-12-07T07:33:12;11.27;;;6.73;;
16512;SDS011;8369;48.030;11.598;2022-12-07T07:35:38;9.17;;;6.03;;
16512;SDS011;8369;48.030;11.598;2022-12-07T07:38:05;11.67;;;7.10;;
16512;SDS011;8369;48.030;11.598;2022-12-07T07:40:31;9.97;;;6.70;;
16512;SDS011;8369;48.030;11.598;2022-12-07T07:42:57;10.87;;;7.00;;
16512;SDS011;8369;48.030;11.598;2022-12-07T07:45:25;12.17;;;8.10;;
16512;SDS011;8369;48.030;11.598;2022-12-07T07:47:51;9.97;;;7.23;;
16512;SDS011;8369;48.030;11.598;2022-12-07T07:50:17;10.67;;;7.03;;
16512;SDS011;8369;48.030;11.598;2022-12-07T07:52:43;10.57;;;6.73;;
16512;SDS011;8369;48.030;11.598;2022-12-07T07:55:10;12.00;;;7.50;;
16512;SDS011;8369;48.030;11.598;2022-12-07T07:57:37;9.47;;;7.00;;
16512;SDS011;8369;48.030;11.598;2022-12-07T08:00:04;10.60;;;6.97;;
16512;SDS011;8369;48.030;11.598;2022-12-07T08:02:33;8.83;;;5.70;;
16512;SDS011;8369;48.030;11.598;2022-12-07T08:04:59;8.33;;;5.80;;
16512;SDS011;8369;48.030;11.598;2022-12-07T08:07:25;9.07;;;5.53;;
16512;SDS011;8369;48.030;11.598;2022-12-07T08:09:52;8.70;;;6.07;;
16512;SDS011;8369;48.030;11.598;2022-12-07T08:12:18;8.43;;;5.43;;
16512;SDS011;8369;48.030;11.598;2022-12-07T08:14:44;8.70;;;5.30;;
16512;SDS011;8369;48.030;11.598;2022-12-07T08:17:10;8.07;;;5.33;;
16512;SDS011;8369;48.030;11.598;2022-12-07T08:19:37;10.03;;;6.30;;
16512;SDS011;8369;48.030;11.598;2022-12-07T08:22:03;11.27;;;6.70;;
16512;SDS011;8369;48.030;11.598;2022-12-07T08:24:29;10.07;;;5.93;;
16512;SDS011;8369;48.030;11.598;2022-12-07T08:26:57;8.50;;;6.00;;
16512;SDS011;8369;48.030;11.598;2022-12-07T08:29:23;10.77;;;6.83;;
16512;SDS011;8369;48.030;11.598;2022-12-07T08:31:49;8.77;;;5.90;;
16512;SDS011;8369;48.030;11.598;2022-12-07T08:34:14;8.83;;;6.27;;
16512;SDS011;8369;48.030;11.598;2022-12-07T08:36:41;10.83;;;7.40;;
16512;SDS011;8369;48.030;11.598;2022-12-07T08:39:06;12.20;;;6.97;;
16512;SDS011;8369;48.030;11.598;2022-12-07T08:41:32;10.70;;;6.70;;
16512;SDS011;8369;48.030;11.598;2022-12-07T08:43:58;11.07;;;6.90;;
16512;SDS011;8369;48.030;11.598;2022-12-07T08:46:31;11.07;;;7.30;;
16512;SDS011;8369;48.030;11.598;2022-12-07T08:49:19;8.33;;;6.40;;
16512;SDS011;8369;48.030;11.598;2022-12-07T08:51:51;11.27;;;7.33;;
16512;SDS011;8369;48.030;11.598;2022-12-07T08:54:17;9.97;;;6.53;;
16512;SDS011;8369;48.030;11.598;2022-12-07T08:56:44;11.43;;;7.13;;
16512;SDS011;8369;48.030;11.598;2022-12-07T08:59:13;10.77;;;6.40;;
16512;SDS011;8369;48.030;11.598;2022-12-07T09:01:40;10.73;;;6.83;;
16512;SDS011;8369;48.030;11.598;2022-12-07T09:04:06;9.10;;;6.30;;
16512;SDS011;8369;48.030;11.598;2022-12-07T09:06:32;11.23;;;7.20;;
16512;SDS011;8369;48.030;11.598;2022-12-07T09:08:58;9.67;;;6.80;;
16512;SDS011;8369;48.030;11.598;2022-12-07T09:11:26;9.40;;;6.33;;
16512;SDS011;8369;48.030;11.598;2022-12-07T09:13:53;10.43;;;6.60;;
16512;SDS011;8369;48.030;11.598;2022-12-07T09:16:19;9.23;;;6.17;;
16512;SDS011;8369;48.030;11.598;2022-12-07T09:18:45;8.37;;;6.03;;
16512;SDS011;8369;48.030;11.598;2022-12-07T09:21:11;10.57;;;6.67;;
16512;SDS011;8369;48.030;11.598;2022-12-07T09:23:37;10.33;;;7.07;;
16512;SDS011;8369;48.030;11.598;2022-12-07T09:26:03;10.17;;;7.20;;
16512;SDS011;8369;48.030;11.598;2022-12-07T09:28:32;11.80;;;7.93;;
16512;SDS011;8369;48.030;11.598;2022-12-07T09:30:58;8.50;;;6.13;;
16512;SDS011;8369;48.030;11.598;2022-12-07T09:33:25;11.23;;;6.97;;
16512;SDS011;8369;48.030;11.598;2022-12-07T09:35:51;9.80;;;6.63;;
16512;SDS011;8369;48.030;11.598;2022-12-07T09:38:17;10.27;;;6.57;;
16512;SDS011;8369;48.030;11.598;2022-12-07T09:40:45;9.07;;;6.30;;
16512;SDS011;8369;48.030;11.598;2022-12-07T09:43:17;9.87;;;6.77;;
16512;SDS011;8369;48.030;11.598;2022-12-07T09:45:46;8.93;;;6.17;;
16512;SDS011;8369;48.030;11.598;2022-12-07T09:48:16;12.03;;;7.07;;
16512;SDS011;8369;48.030;11.598;2022-12-07T09:50:44;9.27;;;6.23;;
16512;SDS011;8369;48.030;11.598;2022-12-07T09:53:16;10.23;;;7.33;;
16512;SDS011;8369;48.030;11.598;2022-12-07T09:55:50;9.70;;;6.47;;
16512;SDS011;8369;48.030;11.598;2022-12-07T09:58:20;9.00;;;6.73;;
16512;SDS011;8369;48.030;11.598;2022-12-07T10:00:55;9.93;;;7.17;;
16512;SDS011;8369;48.030;11.598;2022-12-07T10:03:30;9.83;;;6.40;;
16512;SDS011;8369;48.030;11.598;2022-12-07T10:05:56;10.20;;;6.63;;
16512;SDS011;8369;48.030;11.598;2022-12-07T10:08:22;10.20;;;6.20;;
16512;SDS011;8369;48.030;11.598;2022-12-07T10:10:51;9.33;;;6.43;;
16512;SDS011;8369;48.030;11.598;2022-12-07T10:13:33;8.93;;;6.00;;
16512;SDS011;8369;48.030;11.598;2022-12-07T10:16:02;9.27;;;6.57;;
16512;SDS011;8369;48.030;11.598;2022-12-07T10:21:39;9.83;;;6.30;;
16512;SDS011;8369;48.030;11.598;2022-12-07T10:26:38;10.60;;;6.97;;
16512;SDS011;8369;48.030;11.598;2022-12-07T10:29:22;12.10;;;6.43;;
16512;SDS011;8369;48.030;11.598;2022-12-07T10:31:56;8.93;;;6.30;;
16512;SDS011;8369;48.030;11.598;2022-12-07T10:34:30;9.90;;;6.47;;
16512;SDS011;8369;48.030;11.598;2022-12-07T10:37:13;9.80;;;6.40;;
16512;SDS011;8369;48.030;11.598;2022-12-07T10:39:47;12.30;;;7.17;;
16512;SDS011;8369;48.030;11.598;2022-12-07T10:42:21;10.70;;;7.00;;
16512;SDS011;8369;48.030;11.598;2022-12-07T10:44:48;10.43;;;6.93;;
16512;SDS011;8369;48.030;11.598;2022-12-07T10:47:25;10.33;;;7.10;;
16512;SDS011;8369;48.030;11.598;2022-12-07T10:56:21;10.63;;;6.83;;
16512;SDS011;8369;48.030;11.598;2022-12-07T11:01:45;10.27;;;6.87;;
16512;SDS011;8369;48.030;11.598;2022-12-07T11:10:08;10.10;;;6.90;;
16512;SDS011;8369;48.030;11.598;2022-12-07T11:12:50;10.17;;;6.97;;
16512;SDS011;8369;48.030;11.598;2022-12-07T11:21:20;9.90;;;6.67;;
16512;SDS011;8369;48.030;11.598;2022-12-07T11:24:03;9.43;;;6.50;;
16512;SDS011;8369;48.030;11.598;2022-12-07T11:29:37;9.37;;;6.23;;
16512;SDS011;8369;48.030;11.598;2022-12-07T11:37:41;10.17;;;6.67;;
16512;SDS011;8369;48.030;11.598;2022-12-07T11:42:36;9.17;;;6.43;;
16512;SDS011;8369;48.030;11.598;2022-12-07T11:45:19;9.07;;;6.43;;
16512;SDS011;8369;48.030;11.598;2022-12-07T11:52:57;7.67;;;5.53;;
16512;SDS011;8369;48.030;11.598;2022-12-07T11:58:35;9.30;;;6.30;;
16512;SDS011;8369;48.030;11.598;2022-12-07T12:06:38;9.17;;;5.50;;
16512;SDS011;8369;48.030;11.598;2022-12-07T12:09:15;8.63;;;6.23;;
16512;SDS011;8369;48.030;11.598;2022-12-07T12:22:34;10.60;;;6.33;;
16512;SDS011;8369;48.030;11.598;2022-12-07T12:25:06;8.87;;;5.73;;
16512;SDS011;8369;48.030;11.598;2022-12-07T12:27:42;9.57;;;6.07;;
16512;SDS011;8369;48.030;11.598;2022-12-07T12:30:29;9.03;;;5.97;;
16512;SDS011;8369;48.030;11.598;2022-12-07T12:33:05;10.43;;;6.07;;
16512;SDS011;8369;48.030;11.598;2022-12-07T12:35:45;9.03;;;6.57;;
16512;SDS011;8369;48.030;11.598;2022-12-07T12:40:52;8.93;;;6.23;;
16512;SDS011;8369;48.030;11.598;2022-12-07T12:51:47;11.33;;;6.70;;
16512;SDS011;8369;48.030;11.598;2022-12-07T12:54:19;9.97;;;6.53;;
16512;SDS011;8369;48.030;11.598;2022-12-07T12:56:55;10.33;;;6.67;;
16512;SDS011;8369;48.030;11.598;2022-12-07T13:00:02;12.23;;;7.50;;
16512;SDS011;8369;48.030;11.598;2022-12-07T13:03:03;10.27;;;6.20;;
16512;SDS011;8369;48.030;11.598;2022-12-07T13:05:29;10.10;;;6.47;;
16512;SDS011;8369;48.030;11.598;2022-12-07T13:10:39;10.37;;;7.10;;
16512;SDS011;8369;48.030;11.598;2022-12-07T13:18:42;9.73;;;6.73;;
16512;SDS011;8369;48.030;11.598;2022-12-07T13:31:36;10.43;;;6.00;;
16512;SDS011;8369;48.030;11.598;2022-12-07T13:34:28;10.00;;;6.73;;
16512;SDS011;8369;48.030;11.598;2022-12-07T13:37:49;9.40;;;6.43;;
16512;SDS011;8369;48.030;11.598;2022-12-07T13:40:15;9.70;;;6.40;;
16512;SDS011;8369;48.030;11.598;2022-12-07T13:42:56;9.07;;;6.80;;
16512;SDS011;8369;48.030;11.598;2022-12-07T13:45:24;9.23;;;6.37;;
16512;SDS011;8369;48.030;11.598;2022-12-07T13:48:30;9.90;;;6.23;;
16512;SDS011;8369;48.030;11.598;2022-12-07T13:51:01;9.53;;;6.53;;
16512;SDS011;8369;48.030;11.598;2022-12-07T13:53:29;10.70;;;6.00;;
16512;SDS011;8369;48.030;11.598;2022-12-07T13:55:59;7.80;;;5.77;;
16512;SDS011;8369;48.030;11.598;2022-12-07T13:58:27;10.03;;;5.87;;
16512;SDS011;8369;48.030;11.598;2022-12-07T14:00:56;10.33;;;6.00;;
16512;SDS011;8369;48.030;11.598;2022-12-07T14:03:25;9.37;;;6.07;;
16512;SDS011;8369;48.030;11.598;2022-12-07T14:06:07;7.57;;;5.37;;
16512;SDS011;8369;48.030;11.598;2022-12-07T14:08:40;9.83;;;6.13;;
16512;SDS011;8369;48.030;11.598;2022-12-07T14:11:08;9.03;;;5.60;;
16512;SDS011;8369;48.030;11.598;2022-12-07T14:13:42;8.50;;;6.10;;
16512;SDS011;8369;48.030;11.598;2022-12-07T14:18:42;9.97;;;6.30;;
16512;SDS011;8369;48.030;11.598;2022-12-07T14:23:34;8.50;;;6.07;;
16512;SDS011;8369;48.030;11.598;2022-12-07T14:26:05;11.13;;;6.40;;
16512;SDS011;8369;48.030;11.598;2022-12-07T14:28:41;9.33;;;6.30;;
16512;SDS011;8369;48.030;11.598;2022-12-07T14:31:15;10.40;;;7.07;;
16512;SDS011;8369;48.030;11.598;2022-12-07T14:33:45;8.77;;;6.20;;
16512;SDS011;8369;48.030;11.598;2022-12-07T14:36:11;12.70;;;6.80;;
16512;SDS011;8369;48.030;11.598;2022-12-07T14:38:38;10.23;;;6.83;;
16512;SDS011;8369;48.030;11.598;2022-12-07T14:41:04;10.33;;;6.53;;
16512;SDS011;8369;48.030;11.598;2022-12-07T14:43:54;13.33;;;8.03;;
16512;SDS011;8369;48.030;11.598;2022-12-07T14:46:20;12.63;;;6.93;;
16512;SDS011;8369;48.030;11.598;2022-12-07T14:48:46;14.33;;;6.47;;
16512;SDS011;8369;48.030;11.598;2022-12-07T14:51:11;9.47;;;6.40;;
16512;SDS011;8369;48.030;11.598;2022-12-07T14:53:40;9.83;;;6.10;;
16512;SDS011;8369;48.030;11.598;2022-12-07T14:56:27;11.23;;;6.60;;
16512;SDS011;8369;48.030;11.598;2022-12-07T14:58:53;10.67;;;6.60;;
16512;SDS011;8369;48.030;11.598;2022-12-07T15:01:18;10.07;;;6.37;;
16512;SDS011;8369;48.030;11.598;2022-12-07T15:03:44;9.03;;;6.20;;
16512;SDS011;8369;48.030;11.598;2022-12-07T15:06:12;10.63;;;6.97;;
16512;SDS011;8369;48.030;11.598;2022-12-07T15:08:40;9.20;;;5.90;;
16512;SDS011;8369;48.030;11.598;2022-12-07T15:11:05;11.20;;;6.60;;
16512;SDS011;8369;48.030;11.598;2022-12-07T15:13:31;12.60;;;6.63;;
16512;SDS011;8369;48.030;11.598;2022-12-07T15:16:17;9.23;;;6.50;;
16512;SDS011;8369;48.030;11.598;2022-12-07T15:18:45;10.70;;;6.60;;
16512;SDS011;8369;48.030;11.598;2022-12-07T15:21:14;9.67;;;6.73;;
16512;SDS011;8369;48.030;11.598;2022-12-07T15:23:41;12.83;;;6.97;;
16512;SDS011;8369;48.030;11.598;2022-12-07T15:26:07;10.80;;;7.40;;
16512;SDS011;8369;48.030;11.598;2022-12-07T15:28:35;10.53;;;6.83;;
16512;SDS011;8369;48.030;11.598;2022-12-07T15:31:01;12.20;;;7.27;;
16512;SDS011;8369;48.030;11.598;2022-12-07T15:33:27;11.57;;;7.77;;
16512;SDS011;8369;48.030;11.598;2022-12-07T15:35:53;9.97;;;6.43;;
16512;SDS011;8369;48.030;11.598;2022-12-07T15:38:18;13.53;;;8.20;;
16512;SDS011;8369;48.030;11.598;2022-12-07T15:40:47;13.93;;;8.33;;
16512;SDS011;8369;48.030;11.598;2022-12-07T15:43:13;16.20;;;9.17;;
16512;SDS011;8369;48.030;11.598;2022-12-07T15:45:57;17.70;;;11.27;;
16512;SDS011;8369;48.030;11.598;2022-12-07T15:48:24;13.03;;;9.20;;
16512;SDS011;8369;48.030;11.598;2022-12-07T15:50:50;12.87;;;8.23;;
16512;SDS011;8369;48.030;11.598;2022-12-07T15:53:16;16.30;;;8.47;;
16512;SDS011;8369;48.030;11.598;2022-12-07T15:55:42;14.87;;;8.77;;
16512;SDS011;8369;48.030;11.598;2022-12-07T15:58:08;12.60;;;7.90;;
16512;SDS011;8369;48.030;11.598;2022-12-07T16:00:36;14.27;;;9.03;;
16512;SDS011;8369;48.030;11.598;2022-12-07T16:03:02;12.57;;;8.47;;
16512;SDS011;8369;48.030;11.598;2022-12-07T16:05:28;15.30;;;9.07;;
16512;SDS011;8369;48.030;11.598;2022-12-07T16:07:54;14.47;;;8.93;;
16512;SDS011;8369;48.030;11.598;2022-12-07T16:10:20;13.73;;;8.80;;
16512;SDS011;8369;48.030;11.598;2022-12-07T16:12:46;10.90;;;7.93;;
16512;SDS011;8369;48.030;11.598;2022-12-07T16:15:12;16.73;;;9.90;;
16512;SDS011;8369;48.030;11.598;2022-12-07T16:17:37;14.30;;;9.47;;
16512;SDS011;8369;48.030;11.598;2022-12-07T16:20:03;15.37;;;10.03;;
16512;SDS011;8369;48.030;11.598;2022-12-07T16:22:30;13.73;;;8.80;;
16512;SDS011;8369;48.030;11.598;2022-12-07T16:24:56;12.90;;;8.90;;
16512;SDS011;8369;48.030;11.598;2022-12-07T16:27:22;17.43;;;7.90;;
16512;SDS011;8369;48.030;11.598;2022-12-07T16:29:47;12.33;;;8.23;;
16512;SDS011;8369;48.030;11.598;2022-12-07T16:32:13;21.10;;;11.70;;
16512;SDS011;8369;48.030;11.598;2022-12-07T16:34:39;22.33;;;12.23;;
16512;SDS011;8369;48.030;11.598;2022-12-07T16:37:05;15.87;;;9.83;;
16512;SDS011;8369;48.030;11.598;2022-12-07T16:39:32;19.77;;;11.60;;
16512;SDS011;8369;48.030;11.598;2022-12-07T16:41:58;18.27;;;11.10;;
16512;SDS011;8369;48.030;11.598;2022-12-07T16:44:24;23.27;;;12.83;;
16512;SDS011;8369;48.030;11.598;2022-12-07T16:46:50;22.67;;;14.37;;
16512;SDS011;8369;48.030;11.598;2022-12-07T16:49:16;25.43;;;13.87;;
16512;SDS011;8369;48.030;11.598;2022-12-07T16:51:42;21.43;;;13.10;;
16512;SDS011;8369;48.030;11.598;2022-12-07T16:54:11;21.47;;;13.63;;
16512;SDS011;8369;48.030;11.598;2022-12-07T16:56:38;18.93;;;12.30;;
16512;SDS011;8369;48.030;11.598;2022-12-07T16:59:04;20.03;;;12.57;;
16512;SDS011;8369;48.030;11.598;2022-12-07T17:01:29;18.77;;;11.03;;
16512;SDS011;8369;48.030;11.598;2022-12-07T17:03:56;17.93;;;10.67;;
16512;SDS011;8369;48.030;11.598;2022-12-07T17:06:24;19.87;;;11.87;;
16512;SDS011;8369;48.030;11.598;2022-12-07T17:08:53;18.97;;;10.33;;
16512;SDS011;8369;48.030;11.598;2022-12-07T17:11:24;14.90;;;9.43;;
16512;SDS011;8369;48.030;11.598;2022-12-07T17:13:52;20.50;;;12.07;;
16512;SDS011;8369;48.030;11.598;2022-12-07T17:16:36;27.00;;;17.07;;
16512;SDS011;8369;48.030;11.598;2022-12-07T17:19:04;22.83;;;14.43;;